This is the latest recevied weather packets stored in our database for station/object PY2KO-3. If no packets are shown the sender has not sent any weather packets the latest 10 day(s).
| Time | Temp. | Humidity | Pressure | Rain* | Wind** | Luminosity | Snow |
|---|---|---|---|---|---|---|---|
| 1777592951 | 20° C | 82% | 1022.6 hPa | - | - | - | - |
| 1777592053 | 20° C | 81% | 1022.6 hPa | - | - | - | - |
| 1777591153 | 20° C | 81% | 1022.5 hPa | - | - | - | - |
| 1777590254 | 20° C | 82% | 1022.3 hPa | - | - | - | - |
| 1777589354 | 20° C | 82% | 1022.3 hPa | - | - | - | - |
| 1777588455 | 20° C | 82% | 1022.1 hPa | - | - | - | - |
| 1777587552 | 20° C | 83% | 1022 hPa | - | - | - | - |
| 1777586654 | 20° C | 84% | 1021.8 hPa | - | - | - | - |
| 1777585754 | 19.44° C | 86% | 1021.5 hPa | - | - | - | - |
| 1777584851 | 19.44° C | 85% | 1021.2 hPa | - | - | - | - |
| 1777583951 | 19.44° C | 86% | 1021.1 hPa | - | - | - | - |
| 1777583051 | 20° C | 86% | 1020.9 hPa | - | - | - | - |
| 1777582154 | 19.44° C | 86% | 1020.7 hPa | - | - | - | - |
| 1777581251 | 20° C | 86% | 1020.4 hPa | - | - | - | - |
| 1777580352 | 20.56° C | 82% | 1020.1 hPa | - | - | - | - |
| 1777579461 | 20.56° C | 83% | 1020.1 hPa | - | - | - | - |
| 1777578577 | 20.56° C | 82% | 1019.8 hPa | - | - | - | - |
| 1777577651 | 20° C | 85% | 1019.7 hPa | - | - | - | - |
| 1777576751 | 20.56° C | 84% | 1019.5 hPa | - | - | - | - |
| 1777575854 | 21.11° C | 83% | 1019.3 hPa | - | - | - | - |
| 1777574953 | 21.11° C | 81% | 1019.1 hPa | - | - | - | - |
| 1777574051 | 22.22° C | 76% | 1018.6 hPa | - | - | - | - |
| 1777573151 | 21.67° C | 77% | 1018.8 hPa | - | - | - | - |
| 1777572255 | 22.78° C | 75% | 1018.2 hPa | - | - | - | - |
| 1777571360 | 22.78° C | 75% | 1018.2 hPa | - | - | - | - |
* Rain since midnight (hover to see other rain measurements)
** Current wind speed in m/s (hover to see current wind gust speed)